createdAt,value
2018-01-15T00:01:59.475Z,96950.53
2018-01-15T00:04:28.586Z,96955.14
2018-01-15T00:06:54.552Z,96949.61
2018-01-15T00:09:24.660Z,96943.84
2018-01-15T00:11:50.602Z,96944.98
2018-01-15T00:14:17.741Z,96942.06
2018-01-15T00:16:43.729Z,96942.14
2018-01-15T00:19:12.098Z,96937.45
2018-01-15T00:21:38.117Z,96939.13
2018-01-15T00:24:07.221Z,96916.41
2018-01-15T00:26:33.209Z,96929.45
2018-01-15T00:28:59.140Z,96928.77
2018-01-15T00:31:25.156Z,96928.13
2018-01-15T00:33:51.134Z,96921.83
2018-01-15T00:36:18.579Z,96931.48
2018-01-15T00:38:44.526Z,96927.59
2018-01-15T00:41:14.110Z,96930.66
2018-01-15T00:43:40.134Z,96910.05
2018-01-15T00:46:07.838Z,96910.82
2018-01-15T00:48:33.757Z,96906.27
2018-01-15T00:51:04.178Z,96905.84
2018-01-15T00:53:30.140Z,96904.16
2018-01-15T00:55:57.570Z,96900.79
2018-01-15T00:58:23.576Z,96898.72
2018-01-15T01:00:53.142Z,96895.38
2018-01-15T01:03:19.163Z,96898.34
2018-01-15T01:05:45.151Z,96899.62
2018-01-15T01:08:11.105Z,96904.79
2018-01-15T01:10:37.115Z,96909.02
2018-01-15T01:13:04.288Z,96910.20
2018-01-15T01:15:30.291Z,96904.89
2018-01-15T01:17:58.561Z,96902.67
2018-01-15T01:20:24.504Z,96903.17
2018-01-15T01:22:53.100Z,96902.68
2018-01-15T01:25:19.077Z,96906.20
2018-01-15T01:27:48.281Z,96907.49
2018-01-15T01:30:14.212Z,96914.34
2018-01-15T01:32:44.199Z,96915.05
2018-01-15T01:35:10.157Z,96916.32
2018-01-15T01:37:37.388Z,96907.02
2018-01-15T01:40:03.411Z,96910.21
2018-01-15T01:42:29.380Z,96914.97
2018-01-15T01:44:55.414Z,96916.21
2018-01-15T01:47:21.548Z,96916.20
2018-01-15T01:49:49.293Z,96906.46
2018-01-15T01:52:15.222Z,96903.02
2018-01-15T01:54:44.845Z,96901.69
2018-01-15T01:57:10.771Z,96893.65
2018-01-15T01:59:38.939Z,96888.89
2018-01-15T02:02:04.890Z,96892.06
2018-01-15T02:04:34.609Z,96884.46
2018-01-15T02:07:00.568Z,96887.59
2018-01-15T02:09:29.820Z,96890.61
2018-01-15T02:11:55.745Z,96891.00
2018-01-15T02:14:22.815Z,96884.91
2018-01-15T02:16:48.773Z,96884.53
2018-01-15T02:19:14.691Z,96876.36
2018-01-15T02:21:40.618Z,96870.05
2018-01-15T02:24:06.527Z,96870.38
2018-01-15T02:26:34.273Z,96871.73
2018-01-15T02:29:00.220Z,96869.03
2018-01-15T02:31:30.238Z,96870.80
2018-01-15T02:33:56.247Z,96870.80
2018-01-15T02:36:25.624Z,96873.69
2018-01-15T02:38:51.593Z,96875.02
2018-01-15T02:41:18.692Z,96863.91
2018-01-15T02:43:44.611Z,96856.66
2018-01-15T02:46:14.214Z,96861.67
2018-01-15T02:48:40.191Z,96861.81
2018-01-15T02:51:07.898Z,96861.42
2018-01-15T02:53:33.943Z,96853.13
2018-01-15T02:55:59.877Z,96854.42
2018-01-15T02:58:25.873Z,96854.82
2018-01-15T03:00:51.853Z,96846.66
2018-01-15T03:03:19.536Z,96847.07
2018-01-15T03:05:45.565Z,96844.91
2018-01-15T03:08:14.330Z,96849.50
2018-01-15T03:10:40.297Z,96846.37
2018-01-15T03:13:08.890Z,96851.70
2018-01-15T03:15:34.836Z,96853.96
2018-01-15T03:18:03.632Z,96851.02
2018-01-15T03:20:29.593Z,96852.38
2018-01-15T03:22:58.982Z,96849.72
2018-01-15T03:25:24.990Z,96847.63
2018-01-15T03:27:54.954Z,96848.38
2018-01-15T03:30:20.909Z,96864.49
2018-01-15T03:32:46.872Z,96861.94
2018-01-15T03:35:12.870Z,96852.52
2018-01-15T03:37:38.861Z,96852.78
2018-01-15T03:40:05.717Z,96849.62
2018-01-15T03:42:31.691Z,96845.94
2018-01-15T03:45:01.227Z,96839.88
2018-01-15T03:47:27.241Z,96831.34
2018-01-15T03:49:54.726Z,96821.22
2018-01-15T03:52:20.688Z,96815.39
2018-01-15T03:54:50.016Z,96818.86
2018-01-15T03:57:15.962Z,96818.38
2018-01-15T03:59:43.685Z,96817.23
2018-01-15T04:02:09.669Z,96819.36
2018-01-15T04:04:38.533Z,96805.91
2018-01-15T04:07:04.481Z,96796.80
2018-01-15T04:09:30.497Z,96797.05
2018-01-15T04:11:56.529Z,96797.94
2018-01-15T04:14:22.510Z,96800.77
2018-01-15T04:16:50.181Z,96810.22
2018-01-15T04:19:16.202Z,96807.96
2018-01-15T04:21:45.981Z,96811.86
2018-01-15T04:24:12.019Z,96805.27
2018-01-15T04:26:39.949Z,96802.96
2018-01-15T04:29:05.916Z,96799.55
2018-01-15T04:31:35.165Z,96799.84
2018-01-15T04:34:01.236Z,96800.57
2018-01-15T04:36:29.672Z,96795.88
2018-01-15T04:38:55.783Z,96788.39
2018-01-15T04:41:25.557Z,96784.20
2018-01-15T04:43:51.547Z,96780.88
2018-01-15T04:46:17.512Z,96771.93
2018-01-15T04:48:43.432Z,96770.92
2018-01-15T04:51:09.408Z,96772.95
2018-01-15T04:53:36.564Z,96767.36
2018-01-15T04:56:02.539Z,96769.84
2018-01-15T04:58:31.465Z,96766.91
2018-01-15T05:00:57.443Z,96759.14
2018-01-15T05:03:25.233Z,96758.91
2018-01-15T05:05:51.202Z,96763.92
2018-01-15T05:08:20.807Z,96754.09
2018-01-15T05:10:46.837Z,96758.80
2018-01-15T05:13:16.009Z,96759.67
2018-01-15T05:15:41.980Z,96756.55
2018-01-15T05:18:09.195Z,96755.77
2018-01-15T05:20:35.171Z,96753.86
2018-01-15T05:23:01.171Z,96755.46
2018-01-15T05:25:27.132Z,96755.80
2018-01-15T05:27:53.152Z,96751.88
2018-01-15T05:30:22.019Z,96752.82
2018-01-15T05:32:47.972Z,96755.70
2018-01-15T05:35:15.775Z,96757.75
2018-01-15T05:37:41.740Z,96759.06
2018-01-15T05:40:10.144Z,96758.55
2018-01-15T05:42:36.128Z,96753.59
2018-01-15T05:45:06.685Z,96762.59
2018-01-15T05:47:32.694Z,96760.39
2018-01-15T05:50:00.475Z,96754.95
2018-01-15T05:52:26.450Z,96752.56
2018-01-15T05:54:56.369Z,96756.47
2018-01-15T05:57:22.406Z,96750.31
2018-01-15T05:59:48.418Z,96748.66
2018-01-15T06:02:14.376Z,96748.92
2018-01-15T06:04:40.324Z,96744.30
2018-01-15T06:07:06.365Z,96744.36
2018-01-15T06:09:32.308Z,96739.20
2018-01-15T06:12:01.600Z,96739.29
2018-01-15T06:14:27.602Z,96732.57
2018-01-15T06:16:57.091Z,96735.02
2018-01-15T06:19:23.069Z,96725.68
2018-01-15T06:21:50.374Z,96723.40
2018-01-15T06:24:16.336Z,96728.31
2018-01-15T06:26:44.893Z,96728.98
2018-01-15T06:29:10.820Z,96723.89
2018-01-15T06:31:39.570Z,96722.13
2018-01-15T06:34:05.546Z,96716.58
2018-01-15T06:36:31.476Z,96723.81
2018-01-15T06:38:57.430Z,96725.58
2018-01-15T06:41:23.450Z,96715.00
2018-01-15T06:43:52.998Z,96717.63
2018-01-15T06:46:19.002Z,96718.48
2018-01-15T06:48:46.549Z,96718.19
2018-01-15T06:51:12.658Z,96716.58
2018-01-15T06:53:42.124Z,96716.84
2018-01-15T06:56:08.154Z,96718.21
2018-01-15T06:58:37.718Z,96716.58
2018-01-15T07:01:03.693Z,96714.48
2018-01-15T07:03:31.205Z,96714.31
2018-01-15T07:05:57.240Z,96723.44
2018-01-15T07:08:25.440Z,96717.52
2018-01-15T07:10:51.388Z,96708.45
2018-01-15T07:13:17.454Z,96715.97
2018-01-15T07:15:43.454Z,96716.69
2018-01-15T07:18:09.471Z,96717.12
2018-01-15T07:20:38.912Z,96722.53
2018-01-15T07:23:04.880Z,96723.81
2018-01-15T07:25:32.378Z,96710.00
2018-01-15T07:27:58.325Z,96710.95
2018-01-15T07:30:27.582Z,96708.02
2018-01-15T07:32:53.586Z,96707.05
2018-01-15T07:35:22.882Z,96711.30
2018-01-15T07:37:48.881Z,96709.16
2018-01-15T07:40:16.849Z,96705.21
2018-01-15T07:42:42.779Z,96701.23
2018-01-15T07:45:10.522Z,96704.80
2018-01-15T07:47:36.537Z,96700.69
2018-01-15T07:50:02.508Z,96704.00
2018-01-15T07:52:28.496Z,96705.74
2018-01-15T07:54:54.490Z,96710.56
2018-01-15T07:57:22.258Z,96713.34
2018-01-15T07:59:48.217Z,96715.00
2018-01-15T08:02:17.282Z,96703.15
2018-01-15T08:04:43.244Z,96695.70
2018-01-15T08:07:12.389Z,96697.05
2018-01-15T08:09:38.402Z,96696.33
2018-01-15T08:12:07.906Z,96689.65
2018-01-15T08:14:33.904Z,96685.84
2018-01-15T08:17:01.267Z,96679.45
2018-01-15T08:19:27.286Z,96680.50
2018-01-15T08:21:57.001Z,96681.67
2018-01-15T08:24:22.931Z,96669.92
2018-01-15T08:26:48.916Z,96673.39
2018-01-15T08:29:14.979Z,96669.11
2018-01-15T08:31:40.973Z,96672.20
2018-01-15T08:34:08.264Z,96665.38
2018-01-15T08:36:34.268Z,96666.14
2018-01-15T08:39:03.499Z,96665.31
2018-01-15T08:41:29.484Z,96665.42
2018-01-15T08:43:58.770Z,96664.27
2018-01-15T08:46:24.778Z,96654.57
2018-01-15T08:48:51.873Z,96658.55
2018-01-15T08:51:17.857Z,96656.44
2018-01-15T08:53:47.609Z,96654.10
2018-01-15T08:56:13.540Z,96656.89
2018-01-15T08:58:41.386Z,96654.83
2018-01-15T09:01:07.360Z,96649.02
2018-01-15T09:03:33.314Z,96643.14
2018-01-15T09:05:59.315Z,96642.69
2018-01-15T09:08:25.275Z,96640.84
2018-01-15T09:10:54.236Z,96643.89
2018-01-15T09:13:20.223Z,96639.52
2018-01-15T09:15:47.963Z,96642.03
2018-01-15T09:18:13.948Z,96639.55
2018-01-15T09:20:42.461Z,96635.91
2018-01-15T09:23:08.487Z,96635.13
2018-01-15T09:25:37.801Z,96636.31
2018-01-15T09:28:03.781Z,96634.23
2018-01-15T09:30:31.993Z,96634.20
2018-01-15T09:32:57.999Z,96630.23
2018-01-15T09:35:27.561Z,96628.17
2018-01-15T09:37:53.584Z,96629.16
2018-01-15T09:40:19.571Z,96626.26
2018-01-15T09:42:45.531Z,96628.28
2018-01-15T09:45:11.582Z,96625.92
2018-01-15T09:47:39.110Z,96623.73
2018-01-15T09:50:05.136Z,96615.72
2018-01-15T09:52:34.050Z,96615.92
2018-01-15T09:55:00.079Z,96617.20
2018-01-15T09:57:27.969Z,96605.95
2018-01-15T09:59:53.932Z,96602.75
2018-01-15T10:02:23.263Z,96592.81
2018-01-15T10:04:49.208Z,96598.80
2018-01-15T10:07:18.273Z,96599.08
2018-01-15T10:09:44.299Z,96589.17
2018-01-15T10:12:13.641Z,96581.33
2018-01-15T10:14:39.634Z,96582.30
2018-01-15T10:17:05.648Z,96578.48
2018-01-15T10:19:31.678Z,96566.36
2018-01-15T10:21:57.678Z,96564.84
2018-01-15T10:24:23.644Z,96563.28
2018-01-15T10:26:49.628Z,96559.42
2018-01-15T10:29:19.462Z,96550.05
2018-01-15T10:31:45.421Z,96548.20
2018-01-15T10:34:13.951Z,96530.09
2018-01-15T10:36:40.044Z,96526.58
2018-01-15T10:39:08.822Z,96530.66
2018-01-15T10:41:34.854Z,96523.91
2018-01-15T10:44:04.146Z,96518.98
2018-01-15T10:46:30.096Z,96507.81
2018-01-15T10:48:57.362Z,96499.55
2018-01-15T10:51:23.361Z,96501.83
2018-01-15T10:53:49.349Z,96498.41
2018-01-15T10:56:15.388Z,96488.96
2018-01-15T10:58:41.389Z,96487.84
2018-01-15T11:04:06.298Z,96486.13
2018-01-15T11:06:32.285Z,96489.00
2018-01-15T11:08:58.251Z,96485.47
2018-01-15T11:11:24.237Z,96482.41
2018-01-15T11:13:50.209Z,96473.88
2018-01-15T11:16:16.154Z,96476.81
2018-01-15T11:18:42.078Z,96463.80
2018-01-15T11:21:07.990Z,96462.97
2018-01-15T11:23:34.089Z,96460.59
2018-01-15T11:26:00.132Z,96455.88
2018-01-15T11:28:26.111Z,96443.50
2018-01-15T11:30:52.098Z,96432.84
2018-01-15T11:33:18.155Z,96424.20
2018-01-15T11:35:44.150Z,96416.52
2018-01-15T11:38:10.142Z,96412.91
2018-01-15T11:40:36.072Z,96402.02
2018-01-15T11:43:02.082Z,96400.70
2018-01-15T11:45:28.113Z,96390.14
2018-01-15T11:47:54.132Z,96379.44
2018-01-15T11:50:20.125Z,96376.53
2018-01-15T11:52:46.056Z,96368.12
2018-01-15T11:55:11.984Z,96368.16
2018-01-15T11:57:37.919Z,96370.64
2018-01-15T12:00:03.865Z,96367.54
2018-01-15T12:02:29.803Z,96351.36
2018-01-15T12:04:55.806Z,96361.86
2018-01-15T12:07:21.769Z,96345.44
2018-01-15T12:09:47.756Z,96335.33
2018-01-15T12:12:13.728Z,96337.27
2018-01-15T12:14:39.741Z,96325.83
2018-01-15T12:17:05.673Z,96318.09
2018-01-15T12:19:35.399Z,96316.19
2018-01-15T12:24:29.606Z,96310.41
2018-01-15T12:26:55.609Z,96303.59
2018-01-15T12:29:24.980Z,96300.05
2018-01-15T12:31:50.965Z,96287.87
2018-01-15T12:34:18.659Z,96288.16
2018-01-15T12:36:44.671Z,96277.72
2018-01-15T12:39:14.017Z,96269.14
2018-01-15T12:41:40.028Z,96263.11
2018-01-15T12:44:06.071Z,96260.58
2018-01-15T12:46:32.076Z,96253.97
2018-01-15T12:48:57.999Z,96246.38
2018-01-15T12:51:25.468Z,96241.39
2018-01-15T12:53:51.510Z,96238.92
2018-01-15T12:56:21.384Z,96228.41
2018-01-15T12:58:47.335Z,96228.36
2018-01-15T13:01:15.152Z,96224.82
2018-01-15T13:03:41.105Z,96214.77
2018-01-15T13:06:10.210Z,96208.50
2018-01-15T13:11:35.126Z,96196.88
2018-01-15T13:14:01.162Z,96195.55
2018-01-15T13:16:27.186Z,96189.71
2018-01-15T13:18:53.149Z,96187.30
2018-01-15T13:21:19.097Z,96178.38
2018-01-15T13:23:45.059Z,96171.68
2018-01-15T13:26:11.106Z,96173.27
2018-01-15T13:28:37.083Z,96162.53
2018-01-15T13:31:03.130Z,96156.51
2018-01-15T13:33:29.119Z,96153.55
2018-01-15T13:35:55.062Z,96145.98
2018-01-15T13:38:21.073Z,96137.39
2018-01-15T13:40:47.048Z,96126.83
2018-01-15T13:43:13.044Z,96124.42
2018-01-15T13:45:39.021Z,96117.76
2018-01-15T13:48:05.010Z,96106.38
2018-01-15T13:50:30.961Z,96109.14
2018-01-15T13:52:56.986Z,96100.69
2018-01-15T13:55:22.960Z,96098.95
2018-01-15T13:57:48.959Z,96098.11
2018-01-15T14:00:14.934Z,96095.03
2018-01-15T14:02:40.904Z,96095.28
2018-01-15T14:05:06.923Z,96082.83
2018-01-15T14:07:32.935Z,96078.35
2018-01-15T14:09:58.910Z,96071.72
2018-01-15T14:12:24.915Z,96064.89
2018-01-15T14:14:50.942Z,96059.62
2018-01-15T14:17:16.912Z,96052.02
2018-01-15T14:19:42.889Z,96047.47
2018-01-15T14:22:08.850Z,96043.27
2018-01-15T14:24:34.796Z,96027.47
2018-01-15T14:27:00.798Z,96019.78
2018-01-15T14:29:29.218Z,96017.93
2018-01-15T14:31:55.274Z,96007.44
2018-01-15T14:34:21.253Z,96001.65
2018-01-15T14:36:47.270Z,95988.70
2018-01-15T14:39:13.224Z,95985.24
2018-01-15T14:41:42.772Z,95974.01
2018-01-15T14:44:08.814Z,95967.87
2018-01-15T14:46:35.939Z,95965.91
2018-01-15T14:49:01.887Z,95956.70
2018-01-15T14:51:31.288Z,95943.59
2018-01-15T14:53:57.318Z,95928.61
2018-01-15T14:56:26.578Z,95924.70
2018-01-15T14:58:52.546Z,95912.53
2018-01-15T15:01:19.920Z,95911.91
2018-01-15T15:03:45.929Z,95889.20
2018-01-15T15:06:15.025Z,95878.88
2018-01-15T15:08:41.006Z,95872.67
2018-01-15T15:11:06.983Z,95866.60
2018-01-15T15:13:32.985Z,95857.75
2018-01-15T15:15:58.993Z,95853.28
2018-01-15T15:18:26.862Z,95849.30
2018-01-15T15:20:52.902Z,95849.70
2018-01-15T15:23:21.975Z,95841.22
2018-01-15T15:25:47.967Z,95846.87
2018-01-15T15:28:15.770Z,95835.45
2018-01-15T15:30:41.772Z,95813.53
2018-01-15T15:33:11.055Z,95814.95
2018-01-15T15:35:37.022Z,95817.83
2018-01-15T15:38:05.704Z,95826.98
2018-01-15T15:40:31.671Z,95844.73
2018-01-15T15:43:01.328Z,95816.98
2018-01-15T15:45:27.237Z,95821.25
2018-01-15T15:47:53.197Z,95819.28
2018-01-15T15:50:19.181Z,95812.50
2018-01-15T15:52:45.205Z,95816.98
2018-01-15T15:55:11.497Z,95836.59
2018-01-15T15:57:37.495Z,95806.77
2018-01-15T16:00:06.860Z,95817.23
2018-01-15T16:02:32.803Z,95815.01
2018-01-15T16:05:02.587Z,95811.93
2018-01-15T16:07:28.618Z,95812.25
2018-01-15T16:09:56.166Z,95814.13
2018-01-15T16:12:22.140Z,95807.09
2018-01-15T16:14:51.201Z,95803.59
2018-01-15T16:17:17.201Z,95796.88
2018-01-15T16:19:46.108Z,95786.23
2018-01-15T16:22:24.466Z,95782.37
2018-01-15T16:24:50.461Z,95768.06
2018-01-15T16:27:16.460Z,95762.06
2018-01-15T16:29:42.446Z,95758.58
2018-01-15T16:32:08.435Z,95751.78
2018-01-15T16:34:34.513Z,95744.37
2018-01-15T16:37:00.445Z,95737.25
2018-01-15T16:39:26.478Z,95745.07
2018-01-15T16:41:52.494Z,95735.94
2018-01-15T16:44:18.471Z,95732.73
2018-01-15T16:46:44.439Z,95731.45
2018-01-15T16:49:10.426Z,95719.59
2018-01-15T16:51:36.464Z,95714.62
2018-01-15T16:54:02.450Z,95716.06
2018-01-15T16:56:30.523Z,95721.80
2018-01-15T16:58:56.514Z,95714.85
2018-01-15T17:01:22.521Z,95706.80
2018-01-15T17:03:48.550Z,95698.48
2018-01-15T17:06:14.540Z,95698.55
2018-01-15T17:08:43.527Z,95693.13
2018-01-15T17:11:09.570Z,95688.69
2018-01-15T17:13:37.183Z,95686.55
2018-01-15T17:16:03.145Z,95681.60
2018-01-15T17:18:33.047Z,95676.86
2018-01-15T17:20:59.025Z,95665.64
2018-01-15T17:23:27.055Z,95654.95
2018-01-15T17:25:53.042Z,95649.92
2018-01-15T17:28:22.096Z,95633.39
2018-01-15T17:30:48.048Z,95636.08
2018-01-15T17:33:15.966Z,95638.27
2018-01-15T17:35:41.896Z,95628.84
2018-01-15T17:38:07.843Z,95617.42
2018-01-15T17:40:33.883Z,95626.42
2018-01-15T17:42:59.890Z,95608.09
2018-01-15T17:45:28.972Z,95608.71
2018-01-15T17:47:54.922Z,95598.39
2018-01-15T17:50:23.980Z,95583.24
2018-01-15T17:52:49.993Z,95586.24
2018-01-15T17:55:17.374Z,95571.05
2018-01-15T17:57:43.414Z,95568.69
2018-01-15T18:00:12.890Z,95572.59
2018-01-15T18:02:38.873Z,95570.52
2018-01-15T18:05:06.358Z,95564.98
2018-01-15T18:07:32.414Z,95554.51
2018-01-15T18:10:01.698Z,95555.72
2018-01-15T18:12:27.687Z,95565.15
2018-01-15T18:14:53.721Z,95555.79
2018-01-15T18:17:19.724Z,95550.27
2018-01-15T18:19:45.742Z,95547.80
2018-01-15T18:22:13.078Z,95551.27
2018-01-15T18:24:39.065Z,95542.69
2018-01-15T18:27:08.762Z,95543.53
2018-01-15T18:29:34.709Z,95551.73
2018-01-15T18:32:02.604Z,95545.84
2018-01-15T18:34:28.633Z,95540.58
2018-01-15T18:36:58.283Z,95532.55
2018-01-15T18:39:24.243Z,95531.05
2018-01-15T18:41:51.619Z,95524.61
2018-01-15T18:44:17.599Z,95526.16
2018-01-15T18:46:47.145Z,95514.64
2018-01-15T18:49:13.162Z,95511.57
2018-01-15T18:51:39.104Z,95506.63
2018-01-15T18:54:05.135Z,95505.59
2018-01-15T18:56:31.116Z,95501.16
2018-01-15T18:58:58.306Z,95496.37
2018-01-15T19:01:24.229Z,95488.28
2018-01-15T19:03:53.729Z,95481.77
2018-01-15T19:06:19.668Z,95479.89
2018-01-15T19:08:48.588Z,95475.45
2018-01-15T19:11:14.573Z,95468.77
2018-01-15T19:13:42.140Z,95465.83
2018-01-15T19:16:08.141Z,95460.59
2018-01-15T19:18:37.524Z,95456.91
2018-01-15T19:21:03.509Z,95451.73
2018-01-15T19:23:32.874Z,95446.38
2018-01-15T19:25:58.854Z,95444.38
2018-01-15T19:28:24.839Z,95434.30
2018-01-15T19:30:50.823Z,95428.27
2018-01-15T19:33:16.829Z,95429.19
2018-01-15T19:35:49.403Z,95423.62
2018-01-15T19:38:17.358Z,95406.44
2018-01-15T19:40:43.436Z,95404.02
2018-01-15T19:46:18.239Z,95384.42
2018-01-15T19:48:50.314Z,95366.44
2018-01-15T19:51:22.278Z,95368.06
2018-01-15T19:53:54.355Z,95360.22
2018-01-15T19:56:26.317Z,95356.88
2018-01-15T20:02:01.282Z,95332.92
2018-01-15T20:04:33.299Z,95328.46
2018-01-15T20:07:05.359Z,95306.69
2018-01-15T20:09:37.457Z,95294.39
2018-01-15T20:12:03.488Z,95286.69
2018-01-15T20:14:29.526Z,95297.61
2018-01-15T20:16:55.515Z,95294.77
2018-01-15T20:19:21.479Z,95283.98
2018-01-15T20:21:47.498Z,95279.31
2018-01-15T20:24:13.471Z,95283.56
2018-01-15T20:26:39.430Z,95281.69
2018-01-15T20:29:05.412Z,95276.91
2018-01-15T20:31:31.388Z,95280.75
2018-01-15T20:33:57.394Z,95265.69
2018-01-15T20:36:23.348Z,95263.51
2018-01-15T20:38:49.291Z,95285.28
2018-01-15T20:41:15.255Z,95269.20
2018-01-15T20:43:41.181Z,95265.75
2018-01-15T20:46:07.177Z,95272.28
2018-01-15T20:48:33.157Z,95275.00
2018-01-15T20:50:59.140Z,95261.99
2018-01-15T20:53:25.128Z,95248.44
2018-01-15T20:55:51.050Z,95247.18
2018-01-15T20:58:17.062Z,95232.60
2018-01-15T21:00:43.091Z,95230.64
2018-01-15T21:03:09.085Z,95243.80
2018-01-15T21:05:34.991Z,95231.88
2018-01-15T21:08:00.986Z,95222.91
2018-01-15T21:10:26.945Z,95226.52
2018-01-15T21:12:52.942Z,95223.50
2018-01-15T21:15:18.955Z,95219.60
2018-01-15T21:17:44.970Z,95225.97
2018-01-15T21:20:10.944Z,95209.80
2018-01-15T21:22:36.989Z,95206.98
2018-01-15T21:25:03.014Z,95204.73
2018-01-15T21:30:19.158Z,95201.58
2018-01-15T21:32:45.126Z,95195.25
2018-01-15T21:35:11.117Z,95205.48
2018-01-15T21:37:37.075Z,95205.52
2018-01-15T21:40:03.040Z,95187.73
2018-01-15T21:42:29.122Z,95198.20
2018-01-15T21:44:55.114Z,95179.64
2018-01-15T21:47:25.408Z,95175.20
2018-01-15T21:49:51.347Z,95171.89
2018-01-15T21:52:17.322Z,95193.52
2018-01-15T21:54:43.332Z,95176.03
2018-01-15T21:57:09.379Z,95179.13
2018-01-15T21:59:35.332Z,95185.88
2018-01-15T22:02:01.374Z,95165.67
2018-01-15T22:04:27.364Z,95186.34
2018-01-15T22:06:53.310Z,95187.55
2018-01-15T22:09:19.363Z,95215.72
2018-01-15T22:11:45.386Z,95193.60
2018-01-15T22:14:11.435Z,95197.34
2018-01-15T22:16:37.410Z,95201.50
2018-01-15T22:19:03.482Z,95219.59
2018-01-15T22:21:29.511Z,95175.89
2018-01-15T22:23:55.518Z,95178.47
2018-01-15T22:26:21.458Z,95178.88
2018-01-15T22:28:47.494Z,95180.10
2018-01-15T22:31:13.427Z,95190.63
2018-01-15T22:33:39.443Z,95191.92
2018-01-15T22:36:05.430Z,95174.07
2018-01-15T22:38:31.470Z,95177.43
2018-01-15T22:40:57.492Z,95181.45
2018-01-15T22:43:23.454Z,95181.97
2018-01-15T22:45:49.440Z,95183.08
2018-01-15T22:48:15.436Z,95169.39
2018-01-15T22:50:41.441Z,95162.55
2018-01-15T22:53:07.465Z,95153.31
2018-01-15T22:55:33.438Z,95140.31
2018-01-15T22:57:59.480Z,95157.45
2018-01-15T23:00:25.468Z,95144.55
2018-01-15T23:02:51.480Z,95156.61
2018-01-15T23:05:17.505Z,95146.50
2018-01-15T23:07:43.608Z,95141.63
2018-01-15T23:10:09.534Z,95129.90
2018-01-15T23:12:35.513Z,95138.36
2018-01-15T23:15:05.353Z,95136.07
2018-01-15T23:17:31.337Z,95124.59
2018-01-15T23:20:00.399Z,95125.34
2018-01-15T23:22:26.420Z,95129.63
2018-01-15T23:24:54.342Z,95124.86
2018-01-15T23:27:20.259Z,95124.77
2018-01-15T23:29:46.290Z,95120.89
2018-01-15T23:32:12.304Z,95118.02
2018-01-15T23:34:38.367Z,95098.96
2018-01-15T23:37:05.362Z,95101.03
2018-01-15T23:39:31.470Z,95106.72
2018-01-15T23:42:01.267Z,95107.23
2018-01-15T23:44:27.249Z,95097.42
2018-01-15T23:46:55.532Z,95088.69
2018-01-15T23:49:21.579Z,95105.12
2018-01-15T23:51:51.663Z,95096.02
2018-01-15T23:54:30.258Z,95096.80
2018-01-15T23:56:57.087Z,95094.77
2018-01-15T23:59:23.052Z,95080.06
